Maxeyville, Colorado
Current Conditions -  °F | °C
As of 3:30 AM on Thursday 23 Oct 2014 (Local Time) from KRCV Reporting Station
Clear Clear  
Wind Chill: 35°   Ceiling: Unl
Heat Index: 39°   Visibility: 10mi
Dew Point: 32°   Wind: 6mph
Humidity: 74%   Direction: 240°WSW
Pressure: 30.32"   Gusts: NA
Location:  37.5196°N, 106.176°W
Report Text: KRCV 230930Z AUTO 24005KT 10SM CLR 04/00 A3032 RMK AO2 T00411002
Loading
Personal Weather Stations






























Interactive Weather Map
Tropical Storm Tracking
New forecast layout! Learn more

10-Day Weather Forecast

Advertisements
Track Severe Weather on mobile